Time;durP1;ratioP1;P1;durP2;ratioP2;P2;SDS_P1;SDS_P2;PMS_P1;PMS_P2;Temp;Humidity;BMP_temperature;BMP_pressure;BME280_temperature;BME280_humidity;BME280_pressure;Samples;Min_cycle;Max_cycle;Signal;HPM_P1;HPM_P2
2022/05/31 00:00:12;;;;;;;;;;;17.40;70.10;17.60;98931.00;;;;336243;29;83354;-86
2022/05/31 00:00:24;;;;;;;;;;;17.40;70.50;17.70;98933.00;;;;335989;29;88949;-86
2022/05/31 00:00:36;;;;;;;;;;;17.40;70.00;17.70;98931.00;;;;335050;29;82279;-86
2022/05/31 00:00:55;;;;;;;;;;;17.40;69.80;17.70;98933.00;;;;334604;29;88749;-87
2022/05/31 00:01:07;;;;;;;;;;;17.40;70.10;17.60;98928.00;;;;336686;28;83562;-86
2022/05/31 00:01:19;;;;;;;;;;;17.40;70.40;17.60;98931.00;;;;332371;29;88875;-86
2022/05/31 00:01:31;;;;;;;;;;;17.40;70.50;17.60;98928.00;;;;333697;29;82474;-86
2022/05/31 00:01:44;;;;;;;;;;;17.40;70.40;17.60;98930.00;;;;332960;29;88219;-86
2022/05/31 00:01:58;;;;;;;;;;;17.40;70.40;17.60;98936.00;;;;335057;29;83333;-86
2022/05/31 00:02:10;;;;;;;;;;;17.40;70.30;17.60;98937.00;;;;339957;28;89130;-86
2022/05/31 00:02:23;;;;;;;;;;;17.40;70.30;17.60;98935.00;;;;339148;28;83454;-86
2022/05/31 00:02:35;;;;;;;;;;;17.40;70.30;17.60;98931.00;;;;339876;28;93325;-86
2022/05/31 00:02:46;;;;;;;;;;;17.40;70.20;17.60;98929.00;;;;336330;28;82553;-86
2022/05/31 00:02:59;;;;;;;;;;;17.40;70.30;17.50;98932.00;;;;334540;29;91405;-86
2022/05/31 00:03:10;;;;;;;;;;;17.40;70.70;17.60;98934.00;;;;335007;29;83424;-86
2022/05/31 00:03:22;;;;;;;;;;;17.30;70.40;17.60;98929.00;;;;333169;28;92789;-86
2022/05/31 00:03:34;;;;;;;;;;;17.30;70.30;17.60;98931.00;;;;335128;28;82567;-86
2022/05/31 00:03:46;;;;;;;;;;;17.30;70.10;17.60;98931.00;;;;334531;29;90637;-86
2022/05/31 00:03:58;;;;;;;;;;;17.30;70.30;17.60;98935.00;;;;333417;28;83348;-86
2022/05/31 00:04:09;;;;;;;;;;;17.30;70.00;17.50;98934.00;;;;331375;29;92373;-87
2022/05/31 00:04:21;;;;;;;;;;;17.30;70.50;17.50;98935.00;;;;332402;29;85792;-86
2022/05/31 00:04:33;;;;;;;;;;;17.30;70.10;17.50;98926.00;;;;333046;29;92969;-86
2022/05/31 00:04:46;;;;;;;;;;;17.30;70.30;17.50;98932.00;;;;333760;29;82498;-86
2022/05/31 00:04:58;;;;;;;;;;;17.30;70.60;17.60;98932.00;;;;334577;29;91258;-86
2022/05/31 00:05:10;;;;;;;;;;;17.30;70.00;17.60;98935.00;;;;334187;29;82574;-86
2022/05/31 00:05:22;;;;;;;;;;;17.30;69.70;17.60;98939.00;;;;333173;29;92280;-87
2022/05/31 00:05:35;;;;;;;;;;;17.30;69.80;17.60;98932.00;;;;333724;29;83561;-86
2022/05/31 00:05:47;;;;;;;;;;;17.30;69.80;17.60;98927.00;;;;334623;29;88641;-86
2022/05/31 00:05:59;;;;;;;;;;;17.30;69.70;17.60;98932.00;;;;334910;29;83283;-87
2022/05/31 00:06:10;;;;;;;;;;;17.30;69.80;17.60;98928.00;;;;334499;29;91236;-86
2022/05/31 00:06:29;;;;;;;;;;;17.30;69.80;17.50;98936.00;;;;334798;29;83345;-87
2022/05/31 00:06:40;;;;;;;;;;;17.30;70.50;17.50;98934.00;;;;333030;29;91688;-86
2022/05/31 00:06:52;;;;;;;;;;;17.30;70.50;17.50;98928.00;;;;333755;29;82380;-86
2022/05/31 00:07:04;;;;;;;;;;;17.30;70.40;17.60;98934.00;;;;335815;28;88180;-86
2022/05/31 00:07:16;;;;;;;;;;;17.30;70.00;17.60;98934.00;;;;341234;28;83595;-86
2022/05/31 00:07:28;;;;;;;;;;;17.30;69.80;17.70;98938.00;;;;335846;28;88860;-86
2022/05/31 00:07:40;;;;;;;;;;;17.30;70.00;17.70;98935.00;;;;340270;28;83418;-86
2022/05/31 00:07:52;;;;;;;;;;;17.30;70.40;17.70;98927.00;;;;342757;28;91013;-86
2022/05/31 00:08:04;;;;;;;;;;;17.30;70.50;17.60;98936.00;;;;340327;28;83394;-86
2022/05/31 00:08:16;;;;;;;;;;;17.30;70.40;17.50;98941.00;;;;335838;29;92010;-86
2022/05/31 00:08:27;;;;;;;;;;;17.30;70.90;17.50;98926.00;;;;333620;29;83538;-87
2022/05/31 00:08:39;;;;;;;;;;;17.30;70.70;17.50;98933.00;;;;334522;29;88634;-86
2022/05/31 00:08:52;;;;;;;;;;;17.30;70.50;17.50;98941.00;;;;332464;29;83310;-86
2022/05/31 00:09:04;;;;;;;;;;;17.30;70.40;17.50;98931.00;;;;333354;29;89097;-86
2022/05/31 00:09:16;;;;;;;;;;;17.30;69.90;17.50;98931.00;;;;334874;29;83521;-87
2022/05/31 00:09:28;;;;;;;;;;;17.30;69.70;17.50;98940.00;;;;341289;28;92788;-86
2022/05/31 00:09:39;;;;;;;;;;;17.30;69.70;17.60;98929.00;;;;339147;28;83370;-86
2022/05/31 00:09:51;;;;;;;;;;;17.30;69.90;17.50;98931.00;;;;338655;28;92811;-86
2022/05/31 00:10:04;;;;;;;;;;;17.30;70.40;17.50;98931.00;;;;339917;28;83202;-86
2022/05/31 00:10:15;;;;;;;;;;;17.30;70.30;17.50;98932.00;;;;337830;28;89471;-87
2022/05/31 00:10:27;;;;;;;;;;;17.30;70.10;17.60;98925.00;;;;331097;29;83386;-87
2022/05/31 00:10:39;;;;;;;;;;;17.30;70.20;17.60;98944.00;;;;331342;29;92000;-86
2022/05/31 00:10:50;;;;;;;;;;;17.30;70.30;17.40;98933.00;;;;332403;29;83309;-86
2022/05/31 00:11:03;;;;;;;;;;;17.30;70.50;17.40;98934.00;;;;333325;29;90318;-86
2022/05/31 00:11:14;;;;;;;;;;;17.30;70.90;17.50;98932.00;;;;332258;29;83494;-87
2022/05/31 00:11:26;;;;;;;;;;;17.30;70.50;17.50;98937.00;;;;332058;29;90347;-86
2022/05/31 00:11:40;;;;;;;;;;;17.30;70.70;17.50;98941.00;;;;333813;29;82288;-86
2022/05/31 00:11:54;;;;;;;;;;;17.30;70.40;17.60;98937.00;;;;333328;29;91174;-86
2022/05/31 00:12:06;;;;;;;;;;;17.30;70.50;17.50;98927.00;;;;333639;29;83376;-86
2022/05/31 00:12:18;;;;;;;;;;;17.30;70.40;17.60;98935.00;;;;334522;29;92409;-86
2022/05/31 00:12:29;;;;;;;;;;;17.30;70.10;17.60;98939.00;;;;333656;29;83458;-86
2022/05/31 00:12:41;;;;;;;;;;;17.30;70.20;17.50;98941.00;;;;334371;29;93109;-86
2022/05/31 00:12:53;;;;;;;;;;;17.30;70.50;17.40;98939.00;;;;333714;29;83177;-87
2022/05/31 00:13:05;;;;;;;;;;;17.30;70.90;17.40;98933.00;;;;333083;28;91777;-86
2022/05/31 00:13:17;;;;;;;;;;;17.30;71.20;17.40;98944.00;;;;337458;28;83562;-86
2022/05/31 00:13:28;;;;;;;;;;;17.30;71.10;17.40;98946.00;;;;331952;29;92366;-86
2022/05/31 00:13:40;;;;;;;;;;;17.30;71.10;17.40;98942.00;;;;333642;29;83521;-86
2022/05/31 00:13:52;;;;;;;;;;;17.30;71.50;17.40;98941.00;;;;333199;29;93108;-86
2022/05/31 00:14:04;;;;;;;;;;;17.20;71.10;17.40;98942.00;;;;333680;29;82600;-86
2022/05/31 00:14:16;;;;;;;;;;;17.20;70.80;17.40;98942.00;;;;333234;29;89390;-86
2022/05/31 00:14:28;;;;;;;;;;;17.20;70.40;17.40;98937.00;;;;333734;29;82421;-86
2022/05/31 00:14:41;;;;;;;;;;;17.20;70.10;17.40;98943.00;;;;334358;29;92426;-86
2022/05/31 00:14:53;;;;;;;;;;;17.20;69.80;17.40;98947.00;;;;333642;29;83343;-86
2022/05/31 00:15:05;;;;;;;;;;;17.20;69.90;17.40;98947.00;;;;333238;29;92525;-86
2022/05/31 00:15:18;;;;;;;;;;;17.20;70.40;17.50;98942.00;;;;333695;29;83270;-87
2022/05/31 00:15:29;;;;;;;;;;;17.20;70.40;17.60;98943.00;;;;333184;29;92074;-86
2022/05/31 00:15:41;;;;;;;;;;;17.20;70.60;17.60;98943.00;;;;333769;29;83176;-86
2022/05/31 00:15:53;;;;;;;;;;;17.20;70.60;17.60;98946.00;;;;330783;29;88970;-86
2022/05/31 00:16:05;;;;;;;;;;;17.30;70.80;17.50;98944.00;;;;333658;29;83520;-86
2022/05/31 00:16:17;;;;;;;;;;;17.30;71.20;17.40;98938.00;;;;335622;29;89281;-87
2022/05/31 00:16:29;;;;;;;;;;;17.20;71.40;17.50;98947.00;;;;336175;29;83319;-86
2022/05/31 00:16:41;;;;;;;;;;;17.20;71.30;17.50;98941.00;;;;335459;28;90562;-87
2022/05/31 00:16:53;;;;;;;;;;;17.20;71.00;17.60;98945.00;;;;335039;29;83378;-86
2022/05/31 00:17:05;;;;;;;;;;;17.20;70.80;17.60;98936.00;;;;334506;29;89443;-86
2022/05/31 00:17:17;;;;;;;;;;;17.30;71.00;17.70;98948.00;;;;335008;29;82411;-87
2022/05/31 00:17:29;;;;;;;;;;;17.30;71.20;17.70;98943.00;;;;335953;29;87827;-86
2022/05/31 00:17:41;;;;;;;;;;;17.30;71.30;17.80;98943.00;;;;336359;28;82419;-86
2022/05/31 00:17:53;;;;;;;;;;;17.30;72.00;17.70;98950.00;;;;335996;28;87969;-86
2022/05/31 00:18:05;;;;;;;;;;;17.30;71.20;17.70;98942.00;;;;337595;28;82448;-87
2022/05/31 00:18:17;;;;;;;;;;;17.30;71.00;17.70;98942.00;;;;335859;29;90697;-86
2022/05/31 00:18:29;;;;;;;;;;;17.30;71.00;17.60;98939.00;;;;336323;28;83311;-86
2022/05/31 00:18:41;;;;;;;;;;;17.30;71.10;17.60;98941.00;;;;337057;28;91656;-86
2022/05/31 00:18:52;;;;;;;;;;;17.30;71.40;17.50;98944.00;;;;336354;28;83369;-86
2022/05/31 00:19:04;;;;;;;;;;;17.30;71.50;17.50;98944.00;;;;336837;28;90989;-86
2022/05/31 00:19:17;;;;;;;;;;;17.30;71.70;17.50;98944.00;;;;335937;28;83627;-86
2022/05/31 00:19:28;;;;;;;;;;;17.30;72.00;17.40;98947.00;;;;334610;29;89930;-86
2022/05/31 00:19:40;;;;;;;;;;;17.30;71.70;17.40;98942.00;;;;335012;29;83396;-86
2022/05/31 00:19:52;;;;;;;;;;;17.30;71.70;17.40;98943.00;;;;341267;28;89338;-86
2022/05/31 00:20:05;;;;;;;;;;;17.20;71.60;17.50;98943.00;;;;340286;28;83466;-86
2022/05/31 00:20:16;;;;;;;;;;;17.30;71.10;17.50;98949.00;;;;338548;28;92182;-86
2022/05/31 00:20:28;;;;;;;;;;;17.30;71.40;17.50;98947.00;;;;339062;28;83522;-86
2022/05/31 00:20:40;;;;;;;;;;;17.30;71.30;17.50;98951.00;;;;333211;29;91932;-86
2022/05/31 00:20:52;;;;;;;;;;;17.20;71.70;17.40;98947.00;;;;333606;29;83437;-86
2022/05/31 00:21:04;;;;;;;;;;;17.30;72.10;17.40;98943.00;;;;336407;28;92077;-86
2022/05/31 00:21:16;;;;;;;;;;;17.20;71.90;17.40;98940.00;;;;338966;28;83279;-86
2022/05/31 00:21:43;;;;;;;;;;;17.20;71.80;17.40;98940.00;;;;338516;28;92243;-86
2022/05/31 00:22:14;;;;;;;;;;;17.20;71.80;17.40;98945.00;;;;337635;28;83236;-87
2022/05/31 00:22:26;;;;;;;;;;;17.20;71.50;17.60;98944.00;;;;336935;28;88861;-86
2022/05/31 00:22:38;;;;;;;;;;;17.20;71.50;17.60;98942.00;;;;339224;28;83557;-86
2022/05/31 00:22:50;;;;;;;;;;;17.20;71.80;17.50;98943.00;;;;337190;28;90467;-86
2022/05/31 00:23:01;;;;;;;;;;;17.20;71.60;17.60;98945.00;;;;337739;28;82301;-86
2022/05/31 00:23:13;;;;;;;;;;;17.20;71.20;17.50;98952.00;;;;335792;28;90504;-86
2022/05/31 00:23:25;;;;;;;;;;;17.20;71.60;17.50;98948.00;;;;337654;28;82531;-86
2022/05/31 00:23:40;;;;;;;;;;;17.20;71.90;17.40;98954.00;;;;337307;28;89642;-86
2022/05/31 00:23:52;;;;;;;;;;;17.20;71.80;17.40;98950.00;;;;337600;28;83493;-87
2022/05/31 00:24:06;;;;;;;;;;;17.20;72.00;17.40;98940.00;;;;335857;28;92728;-86
2022/05/31 00:24:20;;;;;;;;;;;17.20;71.80;17.40;98946.00;;;;338933;28;83237;-87
2022/05/31 00:24:31;;;;;;;;;;;17.20;71.70;17.60;98945.00;;;;337175;28;92388;-85
2022/05/31 00:24:43;;;;;;;;;;;17.20;71.60;17.50;98949.00;;;;337569;28;83533;-86
2022/05/31 00:24:55;;;;;;;;;;;17.20;71.60;17.50;98947.00;;;;337342;28;89192;-86
2022/05/31 00:25:07;;;;;;;;;;;17.20;71.50;17.50;98945.00;;;;339779;28;83446;-86
2022/05/31 00:25:19;;;;;;;;;;;17.20;71.60;17.60;98948.00;;;;343158;28;90555;-86
2022/05/31 00:25:31;;;;;;;;;;;17.20;71.50;17.50;98945.00;;;;338871;28;83359;-86
2022/05/31 00:25:43;;;;;;;;;;;17.20;71.60;17.40;98946.00;;;;338472;28;92380;-85
2022/05/31 00:25:54;;;;;;;;;;;17.20;71.90;17.40;98950.00;;;;339005;28;83932;-86
2022/05/31 00:26:06;;;;;;;;;;;17.20;72.00;17.50;98950.00;;;;335929;29;89805;-86
2022/05/31 00:26:18;;;;;;;;;;;17.20;71.70;17.40;98951.00;;;;337520;28;83429;-87
2022/05/31 00:26:31;;;;;;;;;;;17.20;71.50;17.50;98947.00;;;;338324;28;92851;-86
2022/05/31 00:26:42;;;;;;;;;;;17.20;71.40;17.60;98957.00;;;;338902;28;83335;-86
2022/05/31 00:26:54;;;;;;;;;;;17.20;71.40;17.60;98954.00;;;;338592;28;89433;-86
2022/05/31 00:27:07;;;;;;;;;;;17.20;71.60;17.60;98955.00;;;;340308;28;83197;-86
2022/05/31 00:27:20;;;;;;;;;;;17.20;71.70;17.60;98944.00;;;;338504;28;89705;-86
2022/05/31 00:27:32;;;;;;;;;;;17.20;71.30;17.60;98949.00;;;;339019;28;83387;-86
2022/05/31 00:27:44;;;;;;;;;;;17.20;71.40;17.60;98950.00;;;;338561;28;89068;-86
2022/05/31 00:27:55;;;;;;;;;;;17.20;71.50;17.50;98947.00;;;;339013;28;82350;-86
2022/05/31 00:28:07;;;;;;;;;;;17.20;71.80;17.50;98948.00;;;;339486;28;88431;-86
2022/05/31 00:28:19;;;;;;;;;;;17.20;72.20;17.40;98954.00;;;;338347;28;82444;-86
2022/05/31 00:28:31;;;;;;;;;;;17.20;71.80;17.40;98948.00;;;;338512;28;90929;-86
2022/05/31 00:28:43;;;;;;;;;;;17.20;71.80;17.40;98953.00;;;;337487;28;83522;-86
2022/05/31 00:28:55;;;;;;;;;;;17.20;71.50;17.50;98947.00;;;;337217;28;90620;-87
2022/05/31 00:29:07;;;;;;;;;;;17.20;71.30;17.50;98952.00;;;;337675;28;83475;-86
2022/05/31 00:29:19;;;;;;;;;;;17.20;71.40;17.40;98953.00;;;;339773;28;88870;-86
2022/05/31 00:29:31;;;;;;;;;;;17.20;71.80;17.40;98946.00;;;;338993;28;83420;-86
2022/05/31 00:29:42;;;;;;;;;;;17.20;71.70;17.50;98949.00;;;;338168;28;92312;-86
2022/05/31 00:29:54;;;;;;;;;;;17.20;71.50;17.40;98951.00;;;;341621;28;83508;-86
2022/05/31 00:30:07;;;;;;;;;;;17.20;71.70;17.40;98955.00;;;;338504;28;89171;-86
2022/05/31 00:30:18;;;;;;;;;;;17.20;71.60;17.40;98948.00;;;;337675;28;83155;-86
2022/05/31 00:30:30;;;;;;;;;;;17.20;71.20;17.40;98951.00;;;;337199;28;89254;-86
2022/05/31 00:30:42;;;;;;;;;;;17.20;70.90;17.40;98946.00;;;;338966;28;83435;-86
2022/05/31 00:30:54;;;;;;;;;;;17.20;71.10;17.40;98948.00;;;;338659;28;89222;-86
2022/05/31 00:31:07;;;;;;;;;;;17.20;71.60;17.30;98952.00;;;;337410;28;83486;-86
2022/05/31 00:31:19;;;;;;;;;;;17.20;71.60;17.40;98957.00;;;;339645;28;88989;-86
2022/05/31 00:31:31;;;;;;;;;;;17.20;71.20;17.40;98947.00;;;;347294;28;82442;-86
2022/05/31 00:31:45;;;;;;;;;;;17.20;71.20;17.40;98947.00;;;;335959;28;88071;-86
2022/05/31 00:31:57;;;;;;;;;;;17.20;71.20;17.50;98952.00;;;;340246;28;83136;-86
2022/05/31 00:32:11;;;;;;;;;;;17.20;71.40;17.40;98950.00;;;;337175;28;88809;-86
2022/05/31 00:32:27;;;;;;;;;;;17.20;71.50;17.40;98955.00;;;;340344;28;82190;-86
2022/05/31 00:32:43;;;;;;;;;;;17.20;71.50;17.40;98957.00;;;;341233;28;88075;-86
2022/05/31 00:32:54;;;;;;;;;;;17.20;71.60;17.30;98958.00;;;;340402;28;83061;-86
2022/05/31 00:33:07;;;;;;;;;;;17.10;71.80;17.40;98956.00;;;;337111;28;89119;-86
2022/05/31 00:33:18;;;;;;;;;;;17.10;71.20;17.40;98950.00;;;;340184;28;83430;-87
2022/05/31 00:33:30;;;;;;;;;;;17.10;71.20;17.30;98953.00;;;;339859;28;88714;-87
2022/05/31 00:33:42;;;;;;;;;;;17.20;71.40;17.40;98956.00;;;;339022;28;83268;-86
2022/05/31 00:33:54;;;;;;;;;;;17.10;71.60;17.40;98952.00;;;;339806;28;92055;-87
2022/05/31 00:34:07;;;;;;;;;;;17.10;71.30;17.50;98960.00;;;;339977;28;83363;-86
2022/05/31 00:34:19;;;;;;;;;;;17.10;71.20;17.40;98955.00;;;;337268;28;89833;-86
2022/05/31 00:34:31;;;;;;;;;;;17.20;71.60;17.40;98952.00;;;;337584;28;83261;-86
2022/05/31 00:34:44;;;;;;;;;;;17.10;71.40;17.30;98953.00;;;;338531;28;88349;-86
2022/05/31 00:34:57;;;;;;;;;;;17.10;71.50;17.40;98948.00;;;;337693;28;83271;-86
2022/05/31 00:35:31;;;;;;;;;;;17.10;71.50;17.30;98960.00;;;;337852;28;89139;-86
2022/05/31 00:35:45;;;;;;;;;;;17.10;71.70;17.20;98961.00;;;;337738;28;83086;-86
2022/05/31 00:35:57;;;;;;;;;;;17.10;72.30;17.20;98948.00;;;;336867;28;89996;-86
2022/05/31 00:36:09;;;;;;;;;;;17.10;72.40;17.30;98952.00;;;;339009;28;83350;-86
2022/05/31 00:36:21;;;;;;;;;;;17.10;72.10;17.20;98949.00;;;;338555;28;92049;-86
2022/05/31 00:36:33;;;;;;;;;;;17.10;72.40;17.30;98956.00;;;;340498;28;83363;-86
2022/05/31 00:36:46;;;;;;;;;;;17.10;72.30;17.40;98957.00;;;;340265;28;86892;-86
2022/05/31 00:36:58;;;;;;;;;;;17.10;72.00;17.30;98938.00;;;;342044;28;82344;-87
2022/05/31 00:37:10;;;;;;;;;;;17.00;71.90;17.30;98950.00;;;;342281;28;90223;-86
2022/05/31 00:37:22;;;;;;;;;;;17.10;72.10;17.40;98953.00;;;;343480;28;82486;-86
2022/05/31 00:37:34;;;;;;;;;;;17.10;72.00;17.40;98951.00;;;;341393;28;90159;-86
2022/05/31 00:37:45;;;;;;;;;;;17.10;72.20;17.40;98952.00;;;;339309;28;82340;-87
2022/05/31 00:37:58;;;;;;;;;;;17.10;72.00;17.30;98953.00;;;;341559;28;88632;-86
2022/05/31 00:38:10;;;;;;;;;;;17.10;72.30;17.30;98950.00;;;;339193;28;82427;-86
2022/05/31 00:38:21;;;;;;;;;;;17.10;72.30;17.20;98958.00;;;;337204;28;87698;-85
2022/05/31 00:38:33;;;;;;;;;;;17.10;72.30;17.30;98948.00;;;;337450;28;82356;-86
2022/05/31 00:38:45;;;;;;;;;;;17.10;72.20;17.40;98959.00;;;;337736;28;90922;-86
2022/05/31 00:38:57;;;;;;;;;;;17.10;72.20;17.50;98961.00;;;;337804;28;83252;-86
2022/05/31 00:39:09;;;;;;;;;;;17.10;72.10;17.50;98959.00;;;;338510;28;92112;-86
2022/05/31 00:39:20;;;;;;;;;;;17.10;72.00;17.50;98960.00;;;;340282;28;82366;-86
2022/05/31 00:39:32;;;;;;;;;;;17.10;71.80;17.30;98958.00;;;;339412;28;92558;-86
2022/05/31 00:39:44;;;;;;;;;;;17.10;72.70;17.40;98956.00;;;;341581;28;83379;-87
2022/05/31 00:39:56;;;;;;;;;;;17.10;72.10;17.40;98956.00;;;;338515;28;89602;-87
2022/05/31 00:40:08;;;;;;;;;;;17.10;71.90;17.40;98963.00;;;;338411;28;82535;-86
2022/05/31 00:40:22;;;;;;;;;;;17.10;71.50;17.40;98956.00;;;;343774;28;88661;-86
2022/05/31 00:40:34;;;;;;;;;;;17.10;72.40;17.30;98955.00;;;;345345;28;83544;-86
2022/05/31 00:40:46;;;;;;;;;;;17.10;72.00;17.20;98952.00;;;;345567;28;88840;-87
2022/05/31 00:41:23;;;;;;;;;;;17.10;72.10;17.20;98957.00;;;;345929;28;83259;-86
2022/05/31 00:41:29;;;;;;;;;;;17.10;72.30;17.20;98954.00;;;;345389;28;88658;-86
2022/05/31 00:41:41;;;;;;;;;;;17.10;72.50;17.20;98945.00;;;;344549;28;83413;-86
2022/05/31 00:42:07;;;;;;;;;;;17.10;72.40;17.20;98950.00;;;;345548;28;89019;-87
2022/05/31 00:42:21;;;;;;;;;;;17.10;72.20;17.20;98957.00;;;;344565;28;83436;-86
2022/05/31 00:42:54;;;;;;;;;;;17.10;72.00;17.30;98950.00;;;;345399;28;90000;-86
2022/05/31 00:43:11;;;;;;;;;;;17.10;71.70;17.40;98957.00;;;;346184;28;82428;-86
2022/05/31 00:43:25;;;;;;;;;;;17.00;71.60;17.30;98955.00;;;;346639;27;90893;-86
2022/05/31 00:43:37;;;;;;;;;;;17.10;71.60;17.30;98959.00;;;;348477;27;83529;-86
2022/05/31 00:43:53;;;;;;;;;;;17.10;71.80;17.30;98956.00;;;;346821;28;92148;-86
2022/05/31 00:44:07;;;;;;;;;;;17.00;71.90;17.30;98948.00;;;;347241;27;83457;-87
2022/05/31 00:44:26;;;;;;;;;;;17.00;71.90;17.30;98951.00;;;;345589;28;88464;-86
2022/05/31 00:44:37;;;;;;;;;;;17.10;72.00;17.20;98952.00;;;;347182;28;82603;-87
2022/05/31 00:44:49;;;;;;;;;;;17.00;72.30;17.20;98955.00;;;;346812;28;92130;-86
2022/05/31 00:45:01;;;;;;;;;;;17.00;72.20;17.30;98958.00;;;;347410;28;83356;-86
2022/05/31 00:45:13;;;;;;;;;;;17.00;71.80;17.30;98955.00;;;;345414;28;91169;-87
2022/05/31 00:45:27;;;;;;;;;;;17.00;71.60;17.30;98956.00;;;;348686;27;83210;-86
2022/05/31 00:45:52;;;;;;;;;;;17.00;71.40;17.20;98955.00;;;;348212;27;92065;-87
2022/05/31 00:46:04;;;;;;;;;;;17.00;71.70;17.10;98958.00;;;;345592;28;83390;-86
2022/05/31 00:46:16;;;;;;;;;;;17.00;72.30;17.10;98954.00;;;;346362;28;92389;-86
2022/05/31 00:46:46;;;;;;;;;;;17.00;72.40;17.00;98952.00;;;;348671;27;83514;-87
2022/05/31 00:47:09;;;;;;;;;;;17.00;72.30;17.30;98954.00;;;;348374;27;90530;-86
2022/05/31 00:47:30;;;;;;;;;;;17.00;72.00;17.50;98959.00;;;;347321;27;82297;-86
2022/05/31 00:47:42;;;;;;;;;;;17.00;71.80;17.40;98962.00;;;;346972;28;88669;-86
2022/05/31 00:47:53;;;;;;;;;;;17.00;71.80;17.30;98960.00;;;;347340;28;83242;-86
2022/05/31 00:48:11;;;;;;;;;;;17.00;71.70;17.30;98954.00;;;;346835;28;90231;-86
2022/05/31 00:48:28;;;;;;;;;;;17.00;71.60;17.30;98956.00;;;;345982;28;82457;-86
2022/05/31 00:48:50;;;;;;;;;;;17.00;71.50;17.20;98953.00;;;;345633;28;88958;-86
2022/05/31 00:49:03;;;;;;;;;;;17.00;72.00;17.20;98951.00;;;;346011;28;82383;-86
2022/05/31 00:49:23;;;;;;;;;;;17.00;72.00;17.40;98958.00;;;;345217;28;88739;-87
2022/05/31 00:49:42;;;;;;;;;;;17.00;71.70;17.40;98967.00;;;;346036;28;83244;-86
2022/05/31 00:50:00;;;;;;;;;;;17.00;72.00;17.20;98965.00;;;;347118;28;89898;-87
2022/05/31 00:50:22;;;;;;;;;;;17.00;71.80;17.20;98962.00;;;;348422;27;83595;-86
2022/05/31 00:50:41;;;;;;;;;;;17.00;71.80;17.20;98958.00;;;;347008;28;88775;-86
2022/05/31 00:50:55;;;;;;;;;;;17.10;71.70;17.20;98966.00;;;;346228;28;82460;-86
2022/05/31 00:51:12;;;;;;;;;;;17.00;71.20;17.20;98961.00;;;;345421;28;90084;-86
2022/05/31 00:51:31;;;;;;;;;;;17.00;71.10;17.20;98956.00;;;;347596;28;83238;-87
2022/05/31 00:51:50;;;;;;;;;;;17.00;71.10;17.20;98956.00;;;;345687;28;91953;-86
2022/05/31 00:52:23;;;;;;;;;;;17.00;71.60;17.20;98959.00;;;;347229;28;83464;-86
2022/05/31 00:52:42;;;;;;;;;;;17.00;71.80;17.20;98960.00;;;;345528;28;92709;-86
2022/05/31 00:52:57;;;;;;;;;;;17.00;71.30;17.10;98962.00;;;;346202;28;83348;-86
2022/05/31 00:53:27;;;;;;;;;;;17.00;71.60;17.00;98964.00;;;;346232;28;92436;-86
2022/05/31 00:53:49;;;;;;;;;;;17.00;72.00;17.00;98967.00;;;;346229;28;83426;-87
2022/05/31 00:54:02;;;;;;;;;;;17.00;72.10;17.20;98960.00;;;;345335;28;91484;-86
2022/05/31 00:54:16;;;;;;;;;;;17.00;71.60;17.30;98957.00;;;;347489;28;82687;-86
2022/05/31 00:54:29;;;;;;;;;;;17.00;71.30;17.30;98959.00;;;;347119;28;90031;-86
2022/05/31 00:54:45;;;;;;;;;;;17.00;71.40;17.30;98966.00;;;;347386;28;83350;-86
2022/05/31 00:55:09;;;;;;;;;;;17.00;71.50;17.20;98956.00;;;;345809;28;88750;-86
2022/05/31 00:55:25;;;;;;;;;;;17.00;71.50;17.20;98963.00;;;;346528;28;83429;-86
2022/05/31 00:55:52;;;;;;;;;;;17.00;71.50;17.20;98967.00;;;;347632;27;89486;-86
2022/05/31 00:56:09;;;;;;;;;;;17.00;71.60;17.00;98960.00;;;;347563;27;82504;-87
2022/05/31 00:56:23;;;;;;;;;;;17.00;71.80;17.00;98965.00;;;;345599;28;92525;-86
2022/05/31 00:56:37;;;;;;;;;;;17.00;72.00;16.90;98965.00;;;;346090;28;83463;-86
2022/05/31 00:56:49;;;;;;;;;;;16.90;71.70;16.90;98961.00;;;;345599;28;92240;-86
2022/05/31 00:57:01;;;;;;;;;;;16.90;71.60;16.90;98962.00;;;;344651;28;83464;-86
2022/05/31 00:57:13;;;;;;;;;;;16.90;71.50;17.10;98962.00;;;;345639;28;90064;-86
2022/05/31 00:57:25;;;;;;;;;;;16.90;71.40;17.10;98965.00;;;;346065;28;83439;-86
2022/05/31 00:57:38;;;;;;;;;;;16.90;71.40;17.10;98960.00;;;;347157;28;89764;-86
2022/05/31 00:57:58;;;;;;;;;;;16.90;71.40;17.00;98968.00;;;;347441;28;82371;-86
2022/05/31 00:58:19;;;;;;;;;;;16.90;71.60;17.00;98964.00;;;;346679;28;88094;-86
2022/05/31 00:58:33;;;;;;;;;;;16.90;71.60;17.00;98961.00;;;;346168;28;83357;-87
2022/05/31 00:58:48;;;;;;;;;;;16.90;71.40;17.10;98964.00;;;;345672;28;89706;-86
2022/05/31 00:59:21;;;;;;;;;;;16.90;71.10;17.00;98971.00;;;;347671;28;83289;-86
2022/05/31 00:59:36;;;;;;;;;;;16.90;70.80;17.00;98965.00;;;;348456;27;89581;-86
2022/05/31 00:59:52;;;;;;;;;;;16.90;71.00;17.00;98968.00;;;;347461;28;83469;-86
2022/05/31 01:00:09;;;;;;;;;;;16.90;71.50;16.90;98967.00;;;;346965;28;92257;-86
2022/05/31 01:00:21;;;;;;;;;;;16.90;71.60;17.00;98967.00;;;;345949;28;83306;-86
2022/05/31 01:00:35;;;;;;;;;;;16.90;71.40;17.00;98967.00;;;;347038;28;92296;-86
2022/05/31 01:00:46;;;;;;;;;;;16.90;71.60;17.00;98962.00;;;;346116;28;83162;-87
2022/05/31 01:01:00;;;;;;;;;;;16.90;71.60;17.00;98964.00;;;;345663;28;92089;-86
2022/05/31 01:01:14;;;;;;;;;;;16.90;71.60;17.00;98964.00;;;;347289;28;83295;-86
2022/05/31 01:01:27;;;;;;;;;;;16.90;71.30;17.10;98961.00;;;;345639;28;94352;-87
2022/05/31 01:01:41;;;;;;;;;;;16.90;71.10;17.00;98967.00;;;;346136;28;83391;-86
2022/05/31 01:01:53;;;;;;;;;;;16.90;71.20;17.00;98966.00;;;;345596;28;91846;-87
2022/05/31 01:02:06;;;;;;;;;;;16.90;71.40;17.00;98964.00;;;;347254;28;83464;-87
2022/05/31 01:02:18;;;;;;;;;;;16.90;71.60;16.90;98967.00;;;;347092;28;90464;-86
2022/05/31 01:02:29;;;;;;;;;;;16.90;71.50;17.00;98960.00;;;;347582;28;83335;-86
2022/05/31 01:02:42;;;;;;;;;;;16.90;71.60;17.10;98964.00;;;;348111;27;89237;-86
2022/05/31 01:02:54;;;;;;;;;;;16.90;71.30;17.00;98965.00;;;;347499;28;83407;-86
2022/05/31 01:03:06;;;;;;;;;;;16.90;71.40;17.00;98963.00;;;;347062;28;90582;-86
2022/05/31 01:03:19;;;;;;;;;;;16.90;71.00;17.00;98970.00;;;;346012;28;83496;-86
2022/05/31 01:03:31;;;;;;;;;;;16.90;71.00;17.00;98968.00;;;;345707;28;90965;-86
2022/05/31 01:03:43;;;;;;;;;;;16.90;70.70;17.10;98962.00;;;;347580;28;83198;-86
2022/05/31 01:03:54;;;;;;;;;;;16.90;70.80;17.00;98964.00;;;;348490;27;89526;-86
2022/05/31 01:04:06;;;;;;;;;;;16.90;70.90;17.00;98966.00;;;;348095;27;87831;-87
2022/05/31 01:04:24;;;;;;;;;;;16.90;71.40;17.00;98965.00;;;;346799;28;92538;-87
2022/05/31 01:04:41;;;;;;;;;;;16.90;71.40;17.00;98970.00;;;;347311;28;83444;-86
2022/05/31 01:04:55;;;;;;;;;;;16.90;71.70;17.00;98968.00;;;;345672;28;90444;-86
2022/05/31 01:05:08;;;;;;;;;;;16.90;71.90;17.00;98968.00;;;;347385;28;82291;-85
2022/05/31 01:05:20;;;;;;;;;;;16.90;71.50;17.00;98968.00;;;;345579;28;92205;-86
2022/05/31 01:05:32;;;;;;;;;;;16.90;71.10;17.00;98962.00;;;;344734;28;83283;-87
2022/05/31 01:05:44;;;;;;;;;;;16.90;71.00;17.10;98968.00;;;;347027;28;92690;-86
2022/05/31 01:05:56;;;;;;;;;;;16.90;71.10;17.10;98966.00;;;;347123;27;83466;-86
2022/05/31 01:06:10;;;;;;;;;;;16.90;71.10;17.10;98970.00;;;;347078;28;89112;-87
2022/05/31 01:06:22;;;;;;;;;;;16.90;71.40;17.00;98971.00;;;;347579;28;83347;-87
2022/05/31 01:06:34;;;;;;;;;;;16.90;71.70;17.00;98972.00;;;;344339;28;89739;-87
2022/05/31 01:06:46;;;;;;;;;;;16.90;71.10;17.00;98966.00;;;;345936;28;83497;-86
2022/05/31 01:06:58;;;;;;;;;;;16.80;71.20;17.00;98970.00;;;;345777;28;88805;-86
2022/05/31 01:07:10;;;;;;;;;;;16.90;71.40;17.00;98968.00;;;;346958;28;82847;-86
2022/05/31 01:07:22;;;;;;;;;;;16.90;71.30;17.00;98971.00;;;;346837;28;91661;-86
2022/05/31 01:07:33;;;;;;;;;;;16.80;71.00;17.00;98968.00;;;;347646;27;83070;-86